createdAt,value
2023-02-04T00:00:03.065Z,86.9
2023-02-04T00:15:02.656Z,87.5
2023-02-04T00:30:02.930Z,88.1
2023-02-04T00:45:02.352Z,88.6
2023-02-04T01:00:02.810Z,88.7
2023-02-04T01:15:03.237Z,89.0
2023-02-04T01:30:02.690Z,89.9
2023-02-04T01:45:03.136Z,91.0
2023-02-04T02:00:02.687Z,91.8
2023-02-04T02:15:03.005Z,92.3
2023-02-04T02:30:02.435Z,92.9
2023-02-04T02:45:02.864Z,93.2
2023-02-04T03:00:02.268Z,93.5
2023-02-04T03:15:02.736Z,94.0
2023-02-04T03:30:03.183Z,94.2
2023-02-04T03:45:02.729Z,94.2
2023-02-04T04:00:03.051Z,94.4
2023-02-04T04:15:02.675Z,94.8
2023-02-04T04:30:02.905Z,94.8
2023-02-04T04:45:02.316Z,95.1
2023-02-04T05:00:02.778Z,94.5
2023-02-04T05:15:03.225Z,93.4
2023-02-04T05:30:02.750Z,92.5
2023-02-04T05:45:03.067Z,91.9
2023-02-04T06:00:02.500Z,91.7
2023-02-04T06:15:02.944Z,91.7
2023-02-04T06:30:02.373Z,91.7
2023-02-04T06:45:02.826Z,91.6
2023-02-04T07:00:02.254Z,91.9
2023-02-04T07:15:02.770Z,92.2
2023-02-04T07:30:02.159Z,92.5
2023-02-04T07:45:02.765Z,92.9
2023-02-04T08:00:03.012Z,93.0
2023-02-04T08:15:02.430Z,93.5
2023-02-04T08:30:02.885Z,93.0
2023-02-04T08:45:02.310Z,91.8
2023-02-04T09:00:02.808Z,90.8
2023-02-04T09:15:03.224Z,89.6
2023-02-04T09:30:02.811Z,87.6
2023-02-04T09:45:03.111Z,84.9
2023-02-04T10:00:02.528Z,81.4
2023-02-04T10:15:02.943Z,80.3
2023-02-04T10:30:02.384Z,79.3
2023-02-04T10:45:02.828Z,75.8
2023-02-04T11:00:03.245Z,73.8
2023-02-04T11:15:02.831Z,73.5
2023-02-04T11:30:02.121Z,73.0
2023-02-04T11:45:02.574Z,71.2
2023-02-04T12:00:03.020Z,71.3
2023-02-04T12:15:02.453Z,70.5
2023-02-04T12:30:02.878Z,70.1
2023-02-04T12:45:02.312Z,62.2
2023-02-04T13:00:02.897Z,57.9
2023-02-04T13:15:02.151Z,56.8
2023-02-04T13:30:02.613Z,59.5
2023-02-04T13:45:03.065Z,62.1
2023-02-04T14:00:02.518Z,62.7
2023-02-04T14:15:02.958Z,65.6
2023-02-04T14:30:02.351Z,67.1
2023-02-04T14:45:02.910Z,68.4
2023-02-04T15:00:02.238Z,69.5
2023-02-04T15:15:02.905Z,72.9
2023-02-04T15:30:02.187Z,73.6
2023-02-04T15:45:02.557Z,74.1
2023-02-04T16:00:03.013Z,74.4
2023-02-04T16:15:02.454Z,75.2
2023-02-04T16:30:03.046Z,76.4
2023-02-04T16:45:02.316Z,77.2
2023-02-04T17:00:02.931Z,77.2
2023-02-04T17:15:02.199Z,77.4
2023-02-04T17:30:02.667Z,78.0
2023-02-04T17:45:03.080Z,79.0
2023-02-04T18:00:02.516Z,79.5
2023-02-04T18:15:02.966Z,80.1
2023-02-04T18:30:02.406Z,80.9
2023-02-04T18:45:02.955Z,81.7
2023-02-04T19:00:02.327Z,81.8
2023-02-04T19:15:02.709Z,83.1
2023-02-04T19:30:03.154Z,83.7
2023-02-04T19:45:02.606Z,84.5
2023-02-04T20:00:03.039Z,85.2
2023-02-04T20:15:02.490Z,85.4
2023-02-04T20:30:02.991Z,86.3
2023-02-04T20:45:02.377Z,87.6
2023-02-04T21:00:02.990Z,89.0
2023-02-04T21:15:02.243Z,90.1
2023-02-04T21:30:02.748Z,90.1
2023-02-04T21:45:03.138Z,89.8
2023-02-04T22:00:02.559Z,90.0
2023-02-04T22:15:04.386Z,89.8
2023-02-04T22:30:03.481Z,89.7
2023-02-04T22:45:03.030Z,89.9
2023-02-04T23:00:02.340Z,89.9
2023-02-04T23:30:02.242Z,90.2
2023-02-04T23:45:02.658Z,90.4
